Flight Track Log - Related Links

Times and Time Zones

All times are in EDT time to prevent confusion due to time zone crossing. See the SWA286 flight status page for this flight to view local times or setup timezone preferences in your user account.

Time Position Orientation Groundspeed Altitude Reporting Facility
EDT Latitude Longitude Course Direction KTS MPH feet Rate Location/Type
Sun 04:39:37 PM 36.1500 -86.6667 360° North 159 183 1,800  Level Nashville TRACON
Sun 04:40:25 PM 36.1833 -86.6667 360° North 196 226 3,300 2,333 Climbing Nashville TRACON
Sun 04:41:25 PM 36.2167 -86.7333 302° West 250 288 6,000 3,100 Climbing Nashville TRACON
Sun 04:42:25 PM 36.2167 -86.8333 270° West 289 333 9,500 3,429 Climbing Nashville TRACON
Sun 04:43:10 PM 36.2294 -86.9067 282° West 315 362 12,000 3,657 Climbing Memphis Center
Sun 04:44:10 PM 36.2425 -87.0039 279° West 308 354 15,900 2,900 Climbing Memphis Center
Sun 04:45:10 PM 36.2578 -87.1089 280° West 302 348 17,800 1,950 Climbing Memphis Center
Sun 04:46:10 PM 36.2714 -87.2344 278° West 352 405 19,800 2,100 Climbing Memphis Center
Sun 04:47:10 PM 36.2908 -87.3469 282° West 374 430 22,000 2,200 Climbing Memphis Center
Sun 04:48:10 PM 36.3128 -87.4800 282° West 390 449 24,200 2,150 Climbing Memphis Center
Sun 04:49:10 PM 36.3614 -87.6072 295° West 396 456 26,300 2,000 Climbing Memphis Center
Sun 04:50:10 PM 36.4183 -87.7317 300° West 415 478 28,200 1,750 Climbing Memphis Center
Sun 04:51:10 PM 36.4753 -87.8589 299° West 425 489 29,800 1,700 Climbing Memphis Center
Sun 04:52:10 PM 36.5361 -87.9914 300° West 431 496 31,600 1,750 Climbing Memphis Center
Sun 04:53:10 PM 36.6014 -88.1342 300° West 431 496 33,300 1,800 Climbing Memphis Center
Sun 04:54:10 PM 36.6517 -88.2697 295° West 426 490 35,200 1,350 Climbing Memphis Center
Sun 04:55:10 PM 36.6747 -88.4089 282° West 414 476 36,000 450 Climbing Memphis Center
Sun 04:56:10 PM 36.6997 -88.5456 283° West 407 468 36,100 550 Climbing Memphis Center
Sun 04:57:10 PM 36.7206 -88.6872 280° West 413 475 37,100 950 Climbing Memphis Center
Sun 04:58:10 PM 36.7411 -88.8292 280° West 413 475 38,000 450 Climbing Memphis Center
Sun 04:59:10 PM 36.7617 -88.9689 280° West 413 475 38,000  Level Memphis Center
Sun 05:00:10 PM 36.7881 -89.1108 283° West 413 475 38,000  Level Memphis Center
Sun 05:01:10 PM 36.8081 -89.2531 280° West 413 475 38,000  Level Memphis Center
Sun 05:02:10 PM 36.8281 -89.3928 280° West 413 475 38,000  Level Memphis Center
Sun 05:03:10 PM 36.8456 -89.5194 280° West 413 475 38,000  Level Memphis Center
Sun 05:04:10 PM 36.8694 -89.6592 282° West 413 475 38,000  Level Memphis Center
Sun 05:05:10 PM 36.8869 -89.7967 279° West 413 475 38,000  Level Memphis Center
Sun 05:06:10 PM 36.9083 -89.9367 281° West 413 475 38,000  Level Memphis Center
Sun 05:07:10 PM 36.9275 -90.0767 280° West 413 475 38,000  Level Memphis Center
Sun 05:08:10 PM 36.9486 -90.2167 281° West 413 475 38,000  Level Memphis Center
Sun 05:09:10 PM 36.9694 -90.3594 280° West 413 475 38,000  Level Memphis Center
Sun 05:10:10 PM 36.9881 -90.4997 279° West 413 475 38,000  Level Memphis Center
Sun 05:11:52 PM 37.0189 -90.7239 280° West 411 473 38,000  Level Kansas City Center
Sun 05:12:55 PM 37.0444 -90.8917 281° West 409 471 38,000  Level Kansas City Center
Sun 05:13:58 PM 37.0619 -91.0328 279° West 411 473 38,000  Level Kansas City Center
Sun 05:14:58 PM 37.0806 -91.1603 280° West 405 466 38,000  Level Kansas City Center
Sun 05:16:02 PM 37.0975 -91.2983 279° West 402 463 38,000  Level Kansas City Center
Sun 05:17:03 PM 37.1200 -91.4619 280° West 398 458 38,000  Level Kansas City Center
Sun 05:18:04 PM 37.1381 -91.5994 279° West 398 458 38,000  Level Kansas City Center
Sun 05:19:07 PM 37.1561 -91.7358 279° West 397 457 38,000  Level Kansas City Center
Sun 05:20:07 PM 37.1742 -91.8744 279° West 399 459 38,000  Level Kansas City Center
Sun 05:21:10 PM 37.1922 -92.0125 279° West 399 459 38,000  Level Kansas City Center
Sun 05:22:12 PM 37.2108 -92.1508 280° West 399 459 38,000  Level Kansas City Center
Sun 05:23:16 PM 37.2275 -92.2894 279° West 400 460 38,000  Level Kansas City Center
Sun 05:24:16 PM 37.2458 -92.4294 279° West 402 463 38,000  Level Kansas City Center
Sun 05:25:20 PM 37.2672 -92.5947 279° West 400 460 38,000  Level Kansas City Center
Sun 05:26:20 PM 37.2842 -92.7344 279° West 400 460 38,000  Level Kansas City Center
Sun 05:27:22 PM 37.3008 -92.8747 279° West 402 463 38,000  Level Kansas City Center
Sun 05:28:26 PM 37.3175 -93.0147 279° West 403 464 38,000  Level Kansas City Center
Sun 05:29:26 PM 37.3336 -93.1508 279° West 397 457 38,000  Level Kansas City Center
Sun 05:30:29 PM 37.3503 -93.2875 279° West 394 453 38,000  Level Kansas City Center
Sun 05:31:32 PM 37.3786 -93.4181 285° West 391 450 38,000  Level Kansas City Center
Sun 05:32:32 PM 37.4161 -93.5456 290° West 387 445 38,000  Level Kansas City Center
Sun 05:33:34 PM 37.4594 -93.6994 290° West 388 447 38,000  Level Kansas City Center
Sun 05:34:36 PM 37.4944 -93.8278 289° West 387 445 38,000  Level Kansas City Center
Sun 05:35:38 PM 37.5303 -93.9575 289° West 388 447 38,000  Level Kansas City Center
Sun 05:36:40 PM 37.5650 -94.0856 289° West 387 445 38,000  Level Kansas City Center
Sun 05:37:44 PM 37.5994 -94.2103 289° West 387 445 38,000  Level Kansas City Center
Sun 05:38:46 PM 37.6342 -94.3392 289° West 388 447 38,000  Level Kansas City Center
Sun 05:39:47 PM 37.6761 -94.4950 289° West 391 450 38,000  Level Kansas City Center
Sun 05:40:51 PM 37.7083 -94.6119 289° West 392 451 38,000  Level Kansas City Center
Sun 05:41:50 PM 37.7464 -94.7567 288° West 389 448 38,000  Level Kansas City Center
Sun 05:42:52 PM 37.7781 -94.8806 288° West 388 447 38,000  Level Kansas City Center
Sun 05:43:57 PM 37.8164 -95.0228 289° West 384 442 38,000  Level Kansas City Center
Sun 05:44:59 PM 37.8461 -95.1367 288° West 382 440 38,000  Level Kansas City Center
Sun 05:45:59 PM 37.8864 -95.2894 289° West 382 440 38,000  Level Kansas City Center
Sun 05:47:00 PM 37.9197 -95.4133 289° West 378 435 38,000  Level Kansas City Center
Sun 05:48:04 PM 37.9553 -95.5494 288° West 381 438 38,000  Level Kansas City Center
Sun 05:49:05 PM 37.9867 -95.6744 288° West 385 443 38,000  Level Kansas City Center
Sun 05:50:06 PM 38.0186 -95.7961 288° West 382 440 38,000  Level Kansas City Center
Sun 05:51:10 PM 38.0553 -95.9386 288° West 379 436 38,000  Level Kansas City Center
Sun 05:52:12 PM 38.0858 -96.0606 288° West 378 435 38,000  Level Kansas City Center
Sun 05:53:14 PM 38.1197 -96.1997 287° West 385 443 38,000  Level Kansas City Center
Sun 05:54:15 PM 38.1522 -96.3269 288° West 382 440 38,000  Level Kansas City Center
Sun 05:55:16 PM 38.1847 -96.4558 288° West 383 441 38,000  Level Kansas City Center
Sun 05:56:20 PM 38.2164 -96.5842 287° West 383 441 38,000  Level Kansas City Center
Sun 05:57:22 PM 38.2550 -96.7400 288° West 384 442 38,000  Level Kansas City Center
Sun 05:58:23 PM 38.2878 -96.8706 288° West 388 447 38,000  Level Kansas City Center
Sun 05:59:24 PM 38.3197 -97.0006 287° West 386 444 38,000  Level Kansas City Center
Sun 06:00:29 PM 38.3508 -97.1294 287° West 384 442 38,000  Level Kansas City Center
Sun 06:01:30 PM 38.3817 -97.2597 287° West 385 443 38,000  Level Kansas City Center
Sun 06:02:31 PM 38.4131 -97.3883 287° West 383 441 38,000  Level Kansas City Center
Sun 06:03:34 PM 38.4500 -97.5422 287° West 381 438 38,000  Level Kansas City Center
Sun 06:04:36 PM 38.4803 -97.6714 287° West 382 440 38,000  Level Kansas City Center
Sun 06:05:39 PM 38.5108 -97.8006 287° West 384 442 38,000  Level Kansas City Center
Sun 06:06:40 PM 38.5408 -97.9289 287° West 381 438 38,000  Level Kansas City Center
Sun 06:07:44 PM 38.5717 -98.0597 287° West 385 443 38,000  Level Kansas City Center
Sun 06:08:44 PM 38.6081 -98.2164 287° West 385 443 38,000  Level Kansas City Center
Sun 06:09:46 PM 38.6394 -98.3497 287° West 392 451 38,000  Level Kansas City Center
Sun 06:10:47 PM 38.6697 -98.4831 286° West 392 451 38,000  Level Kansas City Center
Sun 06:11:49 PM 38.7011 -98.6167 287° West 393 452 38,000  Level Kansas City Center
Sun 06:12:51 PM 38.7308 -98.7506 286° West 393 452 38,000  Level Kansas City Center
Sun 06:13:55 PM 38.7619 -98.8844 287° West 393 452 38,000  Level Kansas City Center
Sun 06:14:56 PM 38.7978 -99.0456 286° West 391 450 38,000  Level Kansas City Center
Sun 06:15:59 PM 38.8275 -99.1792 286° West 392 451 38,000  Level Kansas City Center
Sun 06:17:00 PM 38.8506 -99.3164 282° West 394 453 38,000  Level Kansas City Center
Sun 06:17:41 PM 38.8492 -99.4317 269° West 391 450 38,000  Level Denver Center
Sun 06:18:43 PM 38.8497 -99.5653 270° West 391 450 38,000  Level Denver Center
Sun 06:19:45 PM 38.8517 -99.6975 271° West 390 449 38,000  Level Denver Center
Sun 06:20:47 PM 38.8531 -99.8531 271° West 392 451 38,000  Level Denver Center
Sun 06:21:49 PM 38.8533 -99.9844 270° West 388 447 38,000  Level Denver Center
Sun 06:22:51 PM 38.8544 -100.1381 271° West 388 447 38,000  Level Denver Center
Sun 06:23:53 PM 38.8544 -100.2664 270° West 381 438 38,000 -1,210 Level Denver Center
Sun 06:24:55 PM 38.8550 -100.4200 270° West 384 442 35,500 -1,935 Descending Denver Center
Sun 06:25:57 PM 38.8550 -100.5536 270° West 390 449 34,000 -662 Descending Denver Center
Sun 06:27:11 PM 38.8550 -100.7053 270° West 385 443 34,000 -485 Level Denver Center
Sun 06:28:13 PM 38.8553 -100.8839 270° West 391 450 32,900 -968 Descending Denver Center
Sun 06:29:15 PM 38.8542 -101.0181 269° West 394 453 32,000 -435 Descending Denver Center
Sun 06:30:17 PM 38.8542 -101.1714 270° West 388 447 32,000  Level Denver Center
Sun 06:31:19 PM 38.8536 -101.3044 270° West 391 450 32,000  Level Denver Center
Sun 06:32:21 PM 38.8519 -101.4606 269° West 391 450 32,000  Level Denver Center
Sun 06:33:23 PM 38.8511 -101.5939 270° West 392 451 32,000  Level Denver Center
Sun 06:34:25 PM 38.8489 -101.7267 269° West 391 450 32,000  Level Denver Center
Sun 06:35:27 PM 38.8486 -101.8817 270° West 390 449 32,000  Level Denver Center
Sun 06:36:29 PM 38.8461 -102.0144 269° West 391 450 32,000  Level Denver Center
Sun 06:37:30 PM 38.8436 -102.1725 269° West 396 456 32,000  Level Denver Center
Sun 06:38:32 PM 38.8728 -102.2975 287° West 390 449 32,000  Level Denver Center
Sun 06:39:46 PM 38.9194 -102.4386 293° West 385 443 32,000  Level Denver Center
Sun 06:40:49 PM 38.9717 -102.5992 293° West 383 441 32,000 -145 Level Denver Center
Sun 06:41:50 PM 39.0111 -102.7189 293° West 382 440 31,700 -634 Descending Denver Center
Sun 06:42:52 PM 39.0508 -102.8444 292° West 381 438 30,700 -1,016 Descending Denver Center
Sun 06:43:54 PM 39.0911 -102.9717 292° West 380 437 29,600 -1,016 Descending Denver Center
Sun 06:44:56 PM 39.1311 -103.0953 293° West 374 430 28,600 -1,065 Descending Denver Center
Sun 06:45:58 PM 39.1408 -103.2519 275° West 369 425 27,400 -1,065 Descending Denver Center
Sun 06:47:00 PM 39.1553 -103.3822 278° West 366 421 26,400 -1,355 Descending Denver Center
Sun 06:48:02 PM 39.1742 -103.5072 281° West 355 409 24,600 -1,756 Descending Denver Center
Sun 06:49:03 PM 39.2183 -103.6164 298° West 348 400 22,800 -1,902 Descending Denver Center
Sun 06:50:05 PM 39.2750 -103.7164 306° West 345 397 20,700 -2,081 Descending Denver Center
Sun 06:51:07 PM 39.3317 -103.8208 305° West 349 402 18,500 -1,694 Descending Denver Center
Sun 06:52:09 PM 39.3917 -103.9300 305° West 349 402 17,200 -1,355 Descending Denver Center
Sun 06:53:11 PM 39.4008 -104.0403 276° West 311 358 15,700 -1,512 Descending Denver Center
Sun 06:54:12 PM 39.4064 -104.1556 274° West 300 345 14,100 -1,268 Descending Denver Center
Sun 06:55:14 PM 39.4106 -104.2600 273° West 290 334 13,100 -871 Descending Denver Center
Sun 06:56:16 PM 39.4219 -104.3556 279° West 272 313 12,300 -1,016 Descending Denver Center
Sun 06:57:18 PM 39.4658 -104.4419 303° West 268 308 11,000 -1,065 Descending Denver Center
Sun 06:58:20 PM 39.5033 -104.5208 302° West 260 299 10,100 -435 Descending Denver Center
Sun 06:59:22 PM 39.5686 -104.5658 332° Northwest 262 302 10,100 -49 Level Denver Center
Sun 07:00:23 PM 39.6317 -104.5931 342° North 244 281 10,000 -488 Descending Denver Center
Sun 07:01:25 PM 39.6839 -104.6158 341° North 209 241 9,100 -1,113 Descending Denver Center
Sun 07:02:27 PM 39.7381 -104.6381 342° North 194 223 7,700 -1,355 Descending Denver Center
Sun 07:03:29 PM 39.7853 -104.6425 356° North 173 199 6,300 -1,065 Descending Denver Center
Sun 07:04:31 PM 39.8289 -104.6422 360° North 148 170 5,500 -774 Descending Denver Center
Sun 07:06:00 PM 39.8500 -104.6667 North  Level FlightAware Approximate
Sun 07:13:00 PM 39.8617 -104.6732 North  Level Estimated
Sun 07:14:00 PM 39.8617 -104.6732 North  Level Estimated
Sun 07:15:00 PM 39.8617 -104.6732 North  Level Estimated

Login

Don't have an account? Register now (free) for customized features, flight alerts, and more!